• Join FlightAware (Why Join?)
  • Login
  • US Flag 
06:43AM EDT


 

Airport Tracker/Info


-or-


 

Live Flight TrackerFlight Track Log ✈ RPA3392 ✈ 30-Jun-2013 ✈ KMSP - KDCA

Flight Track Log - Related Links

Times and Time Zones

All times are in EDT time to prevent confusion due to time zone crossing. See the RPA3392 flight status page for this flight to view local times or setup timezone preferences in your user account.

Time Position Orientation Groundspeed Altitude Reporting Facility
EDT Latitude Longitude Course Direction KTS MPH feet Rate Location/Type
07:03PM 44.9167 -93.2333 351° North 168 193 2,100  Level Minneapolis TRACON
07:04PM 44.9381 -93.2383 351° North 165 190 3,000 1,860 Climbing Minneapolis Center
07:05PM 44.9903 -93.2067 23° Northeast 219 252 5,300 2,460 Climbing Minneapolis Center
07:06PM 45.0331 -93.1403 48° Northeast 236 272 8,100 2,760 Climbing Minneapolis Center
07:07PM 44.9889 -93.0281 119° Southeast 281 323 11,100 2,460 Climbing Minneapolis Center
07:08PM 44.9356 -92.9244 126° Southeast 325 374 13,200 1,980 Climbing Minneapolis Center
07:09PM 44.8808 -92.8192 126° Southeast 331 381 15,700 2,160 Climbing Minneapolis Center
07:11PM 44.8114 -92.6878 127° Southeast 346 398 18,200 2,160 Climbing Minneapolis Center
07:12PM 44.7503 -92.5750 127° Southeast 359 413 20,300 1,920 Climbing Minneapolis Center
07:13PM 44.6883 -92.4558 126° Southeast 373 429 22,200 1,920 Climbing Minneapolis Center
07:14PM 44.6103 -92.3114 127° Southeast 382 440 24,300 1,740 Climbing Minneapolis Center
07:15PM 44.5447 -92.1878 127° Southeast 391 450 25,800 1,380 Climbing Minneapolis Center
07:16PM 44.4783 -92.0594 126° Southeast 401 461 27,200 1,200 Climbing Minneapolis Center
07:17PM 44.4103 -91.9289 126° Southeast 411 473 28,400 1,080 Climbing Minneapolis Center
07:18PM 44.3453 -91.7928 124° Southeast 420 483 29,500 960 Climbing Minneapolis Center
07:19PM 44.2914 -91.6447 117° Southeast 428 493 30,400 1,020 Climbing Minneapolis Center
07:20PM 44.2233 -91.4667 118° Southeast 434 499 31,700 1,080 Climbing Minneapolis Center
07:21PM 44.1664 -91.3186 118° Southeast 435 501 32,700 960 Climbing Minneapolis Center
07:22PM 44.1114 -91.1764 118° Southeast 434 499 33,700 960 Climbing Minneapolis Center
07:23PM 44.0567 -91.0308 118° Southeast 430 495 34,700 600 Climbing Minneapolis Center
07:24PM 43.9994 -90.8889 119° Southeast 426 490 35,000 120 Climbing Minneapolis Center
07:25PM 43.9197 -90.6825 118° Southeast 437 503 35,000  Level Minneapolis Center
07:26PM 43.8725 -90.5661 119° Southeast 437 503 35,000  Level Chicago Center
07:27PM 43.8153 -90.4192 118° Southeast 435 501 35,000  Level Chicago Center
07:28PM 43.7792 -90.2656 108° East 439 505 35,000  Level Chicago Center
07:29PM 43.7439 -90.0742 104° East 439 505 35,000  Level Chicago Center
07:30PM 43.7128 -89.9092 105° East 443 510 35,000  Level Chicago Center
07:31PM 43.6817 -89.7461 105° East 440 506 35,000  Level Chicago Center
07:32PM 43.6506 -89.5847 105° East 437 503 35,000  Level Chicago Center
07:33PM 43.6197 -89.4236 105° East 433 498 35,000  Level Chicago Center
07:34PM 43.5883 -89.2619 105° East 434 499 35,000  Level Chicago Center
07:35PM 43.5519 -89.0736 105° East 435 501 35,000  Level Chicago Center
07:36PM 43.5206 -88.9128 105° East 435 501 35,000  Level Chicago Center
07:37PM 43.4881 -88.7506 105° East 438 504 35,000  Level Chicago Center
07:38PM 43.4569 -88.5933 105° East 441 507 35,000  Level Chicago Center
07:39PM 43.4186 -88.4122 106° East 445 512 35,000  Level Chicago Center
07:40PM 43.3867 -88.2472 105° East 440 506 35,000  Level Chicago Center
07:41PM 43.3539 -88.0878 106° East 436 502 35,000  Level Chicago Center
07:43PM 43.3214 -87.9272 105° East 437 503 35,000  Level Chicago Center
07:44PM 43.2828 -87.7397 106° East 437 503 35,000  Level Chicago Center
07:45PM 43.2489 -87.5808 106° East 435 501 35,000  Level Chicago Center
07:46PM 43.2156 -87.4206 106° East 438 504 35,000  Level Chicago Center
07:47PM 43.1811 -87.2614 106° East 438 504 35,000  Level Chicago Center
07:48PM 43.1461 -87.1033 107° East 437 503 35,000  Level Chicago Center
07:49PM 43.1117 -86.9453 107° East 435 501 35,000  Level Chicago Center
07:50PM 43.0781 -86.7875 106° East 434 499 35,000  Level Chicago Center
07:51PM 43.0358 -86.5986 107° East 434 499 35,000  Level Chicago Center
07:52PM 43.0014 -86.4411 107° East 434 499 35,000  Level Chicago Center
07:53PM 42.9664 -86.2867 107° East 432 497 35,000  Level Chicago Center
07:54PM 42.9308 -86.1333 108° East 431 496 35,000  Level Chicago Center
07:55PM 42.8969 -85.9797 107° East 433 498 35,000  Level Chicago Center
07:56PM 42.8556 -85.7950 107° East 433 498 35,000  Level Chicago Center
07:57PM 42.8197 -85.6400 107° East 433 498 35,000  Level Chicago Center
07:58PM 42.7822 -85.4847 108° East 434 499 35,000  Level Chicago Center
07:59PM 42.7322 -85.3369 115° Southeast 432 497 35,000  Level Chicago Center
08:01PM 42.6161 -85.0100 116° Southeast 437 503 35,000  Level Chicago Center
08:02PM 42.5639 -84.8617 116° Southeast 436 502 35,000  Level Chicago Center
08:03PM 42.5100 -84.7156 117° Southeast 435 501 35,000  Level Chicago Center
08:04PM 42.4572 -84.5672 116° Southeast 438 504 35,000  Level Chicago Center
08:05PM 42.3917 -84.4358 124° Southeast 424 488 35,000  Level Chicago Center
08:06PM 42.3136 -84.3350 136° Southeast 427 491 35,000  Level Cleveland Center
08:07PM 42.2358 -84.2208 133° Southeast 420 483 35,000  Level Cleveland Center
08:08PM 42.1603 -84.1072 132° Southeast 415 478 35,000  Level Cleveland Center
08:09PM 42.0825 -83.9883 131° Southeast 415 478 35,000  Level Cleveland Center
08:10PM 42.0108 -83.8725 130° Southeast 410 472 35,000  Level Cleveland Center
08:11PM 41.9350 -83.7514 130° Southeast 410 472 35,000  Level Cleveland Center
08:12PM 41.8631 -83.6364 130° Southeast 410 472 35,000  Level Cleveland Center
08:13PM 41.7911 -83.5186 129° Southeast 410 472 35,000  Level Cleveland Center
08:14PM 41.7189 -83.4042 130° Southeast 410 472 35,000  Level Cleveland Center
08:15PM 41.6444 -83.2869 130° Southeast 410 472 35,000  Level Cleveland Center
08:16PM 41.5803 -83.1842 130° Southeast 411 473 35,000  Level Cleveland Center
08:17PM 41.5058 -83.0647 130° Southeast 411 473 35,000  Level Cleveland Center
08:18PM 41.4289 -82.9483 131° Southeast 411 473 35,000  Level Cleveland Center
08:19PM 41.3542 -82.8322 131° Southeast 411 473 35,000  Level Cleveland Center
08:20PM 41.2814 -82.7164 130° Southeast 411 473 35,000  Level Cleveland Center
08:21PM 41.2042 -82.5978 131° Southeast 416 479 35,000  Level Cleveland Center
08:22PM 41.1292 -82.4853 131° Southeast 416 479 35,000  Level Cleveland Center
08:23PM 41.0539 -82.3675 130° Southeast 416 479 35,000  Level Cleveland Center
08:24PM 40.9764 -82.2525 132° Southeast 416 479 35,000  Level Cleveland Center
08:25PM 40.8967 -82.1269 130° Southeast 411 473 35,000  Level Cleveland Center
08:26PM 40.8211 -82.0125 131° Southeast 411 473 35,000  Level Cleveland Center
08:27PM 40.7433 -81.8986 132° Southeast 411 473 35,000  Level Cleveland Center
08:28PM 40.6694 -81.7847 131° Southeast 411 473 35,000  Level Cleveland Center
08:29PM 40.5914 -81.6686 131° Southeast 411 473 35,000  Level Cleveland Center
08:30PM 40.5175 -81.5553 131° Southeast 411 473 35,000  Level Cleveland Center
08:31PM 40.4392 -81.4397 132° Southeast 411 473 35,000  Level Cleveland Center
08:32PM 40.3650 -81.3242 130° Southeast 411 473 35,000  Level Cleveland Center
08:33PM 40.2883 -81.2119 132° Southeast 411 473 35,000  Level Cleveland Center
08:34PM 40.2119 -81.0997 132° Southeast 411 473 35,000  Level Cleveland Center
08:35PM 40.1353 -80.9850 131° Southeast 416 479 35,000  Level Cleveland Center
08:36PM 40.0669 -80.8597 125° Southeast 417 480 35,000  Level Cleveland Center
08:37PM 40.0003 -80.7267 123° Southeast 429 494 35,000  Level Cleveland Center
08:38PM 39.9317 -80.5911 123° Southeast 440 506 35,000  Level Cleveland Center
08:39PM 39.8669 -80.4558 122° Southeast 445 512 35,000 -300 Level Cleveland Center
08:40PM 39.7981 -80.3183 123° Southeast 445 512 34,500 -720 Descending Cleveland Center
08:41PM 39.7031 -80.1336 124° Southeast 465 535 33,200 -900 Descending Washington Center
08:42PM 39.6372 -80.0003 123° Southeast 460 529 32,300 -960 Descending Washington Center
08:43PM 39.5714 -79.8614 122° Southeast 455 524 31,400 -1,080 Descending Washington Center
08:44PM 39.5264 -79.7136 112° Southeast 448 516 30,200 -1,440 Descending Washington Center
08:45PM 39.4878 -79.5606 108° East 443 510 28,600 -1,620 Descending Washington Center
08:46PM 39.4489 -79.4108 109° East 443 510 27,100 -1,560 Descending Washington Center
08:47PM 39.4117 -79.2664 108° East 433 498 25,600 -1,620 Descending Washington Center
08:48PM 39.3933 -79.1178 99° East 428 493 24,000 -1,560 Descending Washington Center
08:49PM 39.3872 -78.9669 93° East 415 478 22,500 -1,500 Descending Washington Center
08:50PM 39.3556 -78.8314 107° East 404 465 21,100 -1,320 Descending Washington Center
08:51PM 39.3067 -78.7111 118° Southeast 388 447 19,900 -1,380 Descending Washington Center
08:52PM 39.2556 -78.5883 118° Southeast 382 440 18,400 -1,440 Descending Washington Center
08:53PM 39.2083 -78.4711 117° Southeast 377 434 17,100 -1,200 Descending Washington Center
08:54PM 39.1611 -78.3542 117° Southeast 377 434 16,000 -600 Descending Washington Center
08:55PM 39.1283 -78.2272 108° East 371 427 16,000  Level Washington Center
08:56PM 39.0978 -78.1031 108° East 365 420 16,000 -540 Level Washington Center
08:57PM 39.0669 -77.9789 108° East 365 420 15,000 -1,500 Descending Washington Center
08:58PM 39.0339 -77.8522 109° East 355 409 13,100 -1,680 Descending Washington Center
08:59PM 39.0086 -77.7553 109° East 323 372 11,600 -1,620 Descending Washington Center
09:00PM 38.9814 -77.6478 108° East 295 339 9,900 -1,620 Descending Washington Center
09:01PM 38.9667 -77.5833 106° East 288 331 8,900 -1,140 Descending Potomac TRACON
09:02PM 38.9667 -77.4667 90° East 282 325 7,900 -660 Descending Potomac TRACON
09:03PM 39.0000 -77.4000 57° Northeast 234 269 7,600 -480 Descending Potomac TRACON
09:04PM 39.0333 -77.3500 49° Northeast 222 255 7,000 -720 Descending Potomac TRACON
09:05PM 39.0667 -77.3000 49° Northeast 205 236 6,300 -1,020 Descending Potomac TRACON
09:06PM 39.0333 -77.2500 131° Southeast 179 206 5,000 -1,200 Descending Potomac TRACON
09:07PM 39.0000 -77.2167 142° Southeast 173 199 3,900 -1,020 Descending Potomac TRACON
09:08PM 38.9667 -77.1667 131° Southeast 171 197 3,000 -960 Descending Potomac TRACON
09:09PM 38.9333 -77.1167 131° Southeast 167 192 2,000 -960 Descending Potomac TRACON